createdAt,value
2019-03-17T00:00:25.197Z,6.97
2019-03-17T00:02:53.757Z,7.30
2019-03-17T00:05:22.309Z,7.75
2019-03-17T00:07:50.853Z,6.83
2019-03-17T00:10:19.385Z,6.60
2019-03-17T00:12:47.909Z,7.87
2019-03-17T00:15:16.493Z,7.05
2019-03-17T00:17:45.078Z,6.45
2019-03-17T00:20:13.942Z,7.40
2019-03-17T00:22:43.361Z,7.65
2019-03-17T00:25:12.038Z,10.23
2019-03-17T00:27:40.937Z,10.70
2019-03-17T00:30:09.642Z,10.45
2019-03-17T00:32:38.269Z,9.48
2019-03-17T00:35:07.067Z,10.25
2019-03-17T00:37:35.929Z,9.23
2019-03-17T00:40:04.987Z,9.48
2019-03-17T00:42:33.585Z,10.03
2019-03-17T00:45:02.119Z,9.53
2019-03-17T00:47:30.710Z,9.73
2019-03-17T00:49:59.315Z,8.70
2019-03-17T00:52:28.176Z,10.05
2019-03-17T00:54:57.277Z,9.88
2019-03-17T00:57:26.128Z,9.05
2019-03-17T00:59:54.712Z,8.95
2019-03-17T01:02:23.441Z,10.10
2019-03-17T01:04:56.344Z,8.18
2019-03-17T01:07:20.572Z,8.78
2019-03-17T01:09:49.377Z,8.30
2019-03-17T01:12:18.601Z,8.08
2019-03-17T01:14:47.269Z,8.87
2019-03-17T01:17:16.189Z,9.43
2019-03-17T01:19:45.000Z,8.00
2019-03-17T01:22:13.775Z,9.98
2019-03-17T01:24:42.705Z,8.38
2019-03-17T01:27:12.008Z,7.90
2019-03-17T01:29:40.538Z,9.43
2019-03-17T01:32:09.352Z,8.40
2019-03-17T01:34:37.832Z,8.88
2019-03-17T01:37:06.352Z,8.40
2019-03-17T01:39:34.914Z,7.95
2019-03-17T01:42:03.508Z,8.28
2019-03-17T01:44:32.076Z,8.73
2019-03-17T01:47:00.860Z,9.10
2019-03-17T01:49:29.340Z,8.58
2019-03-17T01:51:57.884Z,7.72
2019-03-17T01:54:26.383Z,7.08
2019-03-17T01:56:54.900Z,7.55
2019-03-17T01:59:23.388Z,7.83
2019-03-17T02:01:51.888Z,7.87
2019-03-17T02:04:20.697Z,6.60
2019-03-17T02:06:49.192Z,6.35
2019-03-17T02:09:18.056Z,7.12
2019-03-17T02:11:46.857Z,7.08
2019-03-17T02:14:15.340Z,6.45
2019-03-17T02:16:43.812Z,7.25
2019-03-17T02:19:12.622Z,7.12
2019-03-17T02:21:41.368Z,7.50
2019-03-17T02:24:09.848Z,7.65
2019-03-17T02:26:38.361Z,8.33
2019-03-17T02:29:06.840Z,8.75
2019-03-17T02:31:35.582Z,9.40
2019-03-17T02:34:04.914Z,11.40
2019-03-17T02:36:33.720Z,9.35
2019-03-17T02:39:02.293Z,9.60
2019-03-17T02:41:31.580Z,8.88
2019-03-17T02:44:00.109Z,9.05
2019-03-17T02:46:28.873Z,8.15
2019-03-17T02:48:57.423Z,8.40
2019-03-17T02:51:27.384Z,9.08
2019-03-17T02:53:55.869Z,7.87
2019-03-17T02:56:24.436Z,9.33
2019-03-17T02:58:53.018Z,8.75
2019-03-17T03:01:21.528Z,7.55
2019-03-17T03:03:50.322Z,8.15
2019-03-17T03:06:18.836Z,7.50
2019-03-17T03:08:47.296Z,8.18
2019-03-17T03:11:15.809Z,7.75
2019-03-17T03:13:44.354Z,7.90
2019-03-17T03:16:13.165Z,8.33
2019-03-17T03:18:42.327Z,7.60
2019-03-17T03:21:10.827Z,8.93
2019-03-17T03:23:39.320Z,8.90
2019-03-17T03:26:08.156Z,8.87
2019-03-17T03:28:36.625Z,8.98
2019-03-17T03:31:05.165Z,10.80
2019-03-17T03:33:33.996Z,9.73
2019-03-17T03:36:10.714Z,10.68
2019-03-17T03:38:31.152Z,10.25
2019-03-17T03:40:59.652Z,10.90
2019-03-17T03:43:28.212Z,11.93
2019-03-17T03:45:57.318Z,11.93
2019-03-17T03:48:25.979Z,12.25
2019-03-17T03:50:54.649Z,11.93
2019-03-17T03:53:23.127Z,12.37
2019-03-17T03:55:51.908Z,12.88
2019-03-17T03:58:20.423Z,13.05
2019-03-17T04:00:48.954Z,13.15
2019-03-17T04:03:17.499Z,13.08
2019-03-17T04:05:46.025Z,12.45
2019-03-17T04:08:15.343Z,12.78
2019-03-17T04:10:43.900Z,12.82
2019-03-17T04:13:12.948Z,13.13
2019-03-17T04:15:41.511Z,13.10
2019-03-17T04:18:10.046Z,13.88
2019-03-17T04:20:38.694Z,13.80
2019-03-17T04:23:07.270Z,13.95
2019-03-17T04:25:35.847Z,13.58
2019-03-17T04:28:05.028Z,14.23
2019-03-17T04:30:33.823Z,14.28
2019-03-17T04:33:02.641Z,13.32
2019-03-17T04:35:31.448Z,13.62
2019-03-17T04:38:00.239Z,13.78
2019-03-17T04:40:28.765Z,14.25
2019-03-17T04:42:57.323Z,14.33
2019-03-17T04:45:25.804Z,14.30
2019-03-17T04:47:54.276Z,14.90
2019-03-17T04:50:23.241Z,14.33
2019-03-17T04:52:51.743Z,14.45
2019-03-17T04:55:20.519Z,14.63
2019-03-17T04:57:49.038Z,16.00
2019-03-17T05:00:18.775Z,16.07
2019-03-17T05:02:47.284Z,14.90
2019-03-17T05:05:15.807Z,14.85
2019-03-17T05:07:44.611Z,16.00
2019-03-17T05:10:13.159Z,15.90
2019-03-17T05:12:42.290Z,15.98
2019-03-17T05:15:11.160Z,16.35
2019-03-17T05:17:39.703Z,16.10
2019-03-17T05:20:08.522Z,17.40
2019-03-17T05:22:37.067Z,17.42
2019-03-17T05:25:05.743Z,17.25
2019-03-17T05:27:34.308Z,17.25
2019-03-17T05:30:02.793Z,17.35
2019-03-17T05:32:31.310Z,19.52
2019-03-17T05:35:00.346Z,17.57
2019-03-17T05:37:29.067Z,17.75
2019-03-17T05:39:57.623Z,19.80
2019-03-17T05:42:26.118Z,19.42
2019-03-17T05:44:54.643Z,19.48
2019-03-17T05:47:23.514Z,18.73
2019-03-17T05:49:52.062Z,18.50
2019-03-17T05:52:20.902Z,19.60
2019-03-17T05:54:49.423Z,18.85
2019-03-17T05:57:18.033Z,19.40
2019-03-17T05:59:46.802Z,19.02
2019-03-17T06:02:15.775Z,18.80
2019-03-17T06:04:44.288Z,18.92
2019-03-17T06:07:18.544Z,17.90
2019-03-17T06:09:41.490Z,18.42
2019-03-17T06:12:10.030Z,18.55
2019-03-17T06:14:38.582Z,19.32
2019-03-17T06:17:07.098Z,19.20
2019-03-17T06:19:36.198Z,19.75
2019-03-17T06:22:05.294Z,20.27
2019-03-17T06:24:33.846Z,19.32
2019-03-17T06:27:02.614Z,19.73
2019-03-17T06:29:31.382Z,19.35
2019-03-17T06:31:59.878Z,19.17
2019-03-17T06:34:28.642Z,18.35
2019-03-17T06:36:57.206Z,19.30
2019-03-17T06:39:25.832Z,19.92
2019-03-17T06:41:55.150Z,17.57
2019-03-17T06:44:24.554Z,17.75
2019-03-17T06:46:53.038Z,19.07
2019-03-17T06:49:21.573Z,18.75
2019-03-17T06:51:50.078Z,17.82
2019-03-17T06:54:18.851Z,16.60
2019-03-17T06:56:47.394Z,17.15
2019-03-17T06:59:17.619Z,17.63
2019-03-17T07:01:44.631Z,16.80
2019-03-17T07:04:13.129Z,17.37
2019-03-17T07:06:42.189Z,18.17
2019-03-17T07:09:11.326Z,15.48
2019-03-17T07:11:40.159Z,17.27
2019-03-17T07:14:09.276Z,17.32
2019-03-17T07:16:37.735Z,16.85
2019-03-17T07:19:06.333Z,16.10
2019-03-17T07:21:34.981Z,16.60
2019-03-17T07:24:03.584Z,17.07
2019-03-17T07:26:32.429Z,16.32
2019-03-17T07:29:01.019Z,15.68
2019-03-17T07:31:29.617Z,15.15
2019-03-17T07:33:58.446Z,15.58
2019-03-17T07:36:27.254Z,15.38
2019-03-17T07:38:55.809Z,15.08
2019-03-17T07:41:24.413Z,14.58
2019-03-17T07:43:53.330Z,16.07
2019-03-17T07:46:21.970Z,15.25
2019-03-17T07:48:50.761Z,15.20
2019-03-17T07:51:19.310Z,13.43
2019-03-17T07:53:47.897Z,14.30
2019-03-17T07:56:16.697Z,15.23
2019-03-17T07:58:45.237Z,15.15
2019-03-17T08:01:13.789Z,14.70
2019-03-17T08:03:42.585Z,12.68
2019-03-17T08:06:11.102Z,14.05
2019-03-17T08:08:40.080Z,13.13
2019-03-17T08:11:08.570Z,12.80
2019-03-17T08:13:37.353Z,12.25
2019-03-17T08:16:05.942Z,12.65
2019-03-17T08:18:34.485Z,11.48
2019-03-17T08:21:03.115Z,11.65
2019-03-17T08:23:31.681Z,11.00
2019-03-17T08:26:00.173Z,11.48
2019-03-17T08:28:28.853Z,10.15
2019-03-17T08:30:57.418Z,11.55
2019-03-17T08:33:26.057Z,12.35
2019-03-17T08:35:54.601Z,10.72
2019-03-17T08:38:23.134Z,9.93
2019-03-17T08:40:51.810Z,10.80
2019-03-17T08:43:20.317Z,9.98
2019-03-17T08:45:48.857Z,11.12
2019-03-17T08:48:17.923Z,11.25
2019-03-17T08:50:46.868Z,12.03
2019-03-17T08:53:15.447Z,11.50
2019-03-17T08:55:44.069Z,11.22
2019-03-17T08:58:12.705Z,11.95
2019-03-17T09:00:41.256Z,10.15
2019-03-17T09:03:09.917Z,9.13
2019-03-17T09:05:38.661Z,9.73
2019-03-17T09:08:08.545Z,9.98
2019-03-17T09:10:37.105Z,11.53
2019-03-17T09:13:05.678Z,11.73
2019-03-17T09:15:34.207Z,10.68
2019-03-17T09:18:02.775Z,9.95
2019-03-17T09:20:31.300Z,12.43
2019-03-17T09:22:59.844Z,10.95
2019-03-17T09:25:28.323Z,12.15
2019-03-17T09:27:57.175Z,11.50
2019-03-17T09:30:25.700Z,8.80
2019-03-17T09:32:54.635Z,6.85
2019-03-17T09:35:23.145Z,7.22
2019-03-17T09:37:51.691Z,7.65
2019-03-17T09:40:20.203Z,7.45
2019-03-17T09:42:49.543Z,8.00
2019-03-17T09:45:18.049Z,7.72
2019-03-17T09:47:46.623Z,6.53
2019-03-17T09:50:15.223Z,11.43
2019-03-17T09:52:43.763Z,7.50
2019-03-17T09:55:13.203Z,7.87
2019-03-17T09:57:42.201Z,8.13
2019-03-17T10:00:12.003Z,7.58
2019-03-17T10:02:40.592Z,8.65
2019-03-17T10:05:09.741Z,8.08
2019-03-17T10:07:38.345Z,8.20
2019-03-17T10:10:07.985Z,8.03
2019-03-17T10:12:36.709Z,7.10
2019-03-17T10:15:06.398Z,6.75
2019-03-17T10:17:34.969Z,7.42
2019-03-17T10:20:03.694Z,7.05
2019-03-17T10:22:32.553Z,8.60
2019-03-17T10:25:01.042Z,8.70
2019-03-17T10:27:29.598Z,6.58
2019-03-17T10:29:58.079Z,6.22
2019-03-17T10:32:26.659Z,7.47
2019-03-17T10:34:55.341Z,7.37
2019-03-17T10:37:23.971Z,7.80
2019-03-17T10:39:52.445Z,7.22
2019-03-17T10:42:20.970Z,7.85
2019-03-17T10:44:50.304Z,6.87
2019-03-17T10:47:18.828Z,6.45
2019-03-17T10:49:47.641Z,8.58
2019-03-17T10:52:16.457Z,7.17
2019-03-17T10:54:44.951Z,5.67
2019-03-17T10:57:13.407Z,5.60
2019-03-17T10:59:41.902Z,7.85
2019-03-17T11:02:10.396Z,7.08
2019-03-17T11:04:38.918Z,7.87
2019-03-17T11:07:07.456Z,5.33
2019-03-17T11:09:35.976Z,6.47
2019-03-17T11:12:05.121Z,6.75
2019-03-17T11:14:33.613Z,5.10
2019-03-17T11:17:02.133Z,7.72
2019-03-17T11:19:30.605Z,6.85
2019-03-17T11:21:59.073Z,6.40
2019-03-17T11:24:27.921Z,6.30
2019-03-17T11:26:56.385Z,5.83
2019-03-17T11:29:25.066Z,5.45
2019-03-17T11:31:53.570Z,4.55
2019-03-17T11:34:22.101Z,4.85
2019-03-17T11:36:50.576Z,4.58
2019-03-17T11:39:19.432Z,4.97
2019-03-17T11:41:47.939Z,4.80
2019-03-17T11:44:16.551Z,6.08
2019-03-17T11:46:45.025Z,3.87
2019-03-17T11:49:13.861Z,3.25
2019-03-17T11:51:42.385Z,5.83
2019-03-17T11:54:11.202Z,6.47
2019-03-17T11:56:39.714Z,5.15
2019-03-17T11:59:08.219Z,5.45
2019-03-17T12:01:36.691Z,5.33
2019-03-17T12:04:05.249Z,4.70
2019-03-17T12:06:34.028Z,4.53
2019-03-17T12:09:04.420Z,5.95
2019-03-17T12:11:31.413Z,4.78
2019-03-17T12:14:00.009Z,4.92
2019-03-17T12:16:28.497Z,6.22
2019-03-17T12:18:57.461Z,5.10
2019-03-17T12:21:26.005Z,5.80
2019-03-17T12:23:54.509Z,5.45
2019-03-17T12:26:22.985Z,4.83
2019-03-17T12:28:51.485Z,4.20
2019-03-17T12:31:19.941Z,4.50
2019-03-17T12:33:48.537Z,5.95
2019-03-17T12:36:19.037Z,6.45
2019-03-17T12:38:45.569Z,4.53
2019-03-17T12:41:14.053Z,5.37
2019-03-17T12:43:42.532Z,4.53
2019-03-17T12:46:11.104Z,5.50
2019-03-17T12:48:39.624Z,4.42
2019-03-17T12:51:08.093Z,4.40
2019-03-17T12:53:36.605Z,4.75
2019-03-17T12:56:05.120Z,4.95
2019-03-17T12:58:34.145Z,5.33
2019-03-17T13:01:02.636Z,5.12
2019-03-17T13:03:31.256Z,5.08
2019-03-17T13:05:59.729Z,6.20
2019-03-17T13:08:28.246Z,5.45
2019-03-17T13:10:56.724Z,4.90
2019-03-17T13:13:25.888Z,5.60
2019-03-17T13:15:55.168Z,5.62
2019-03-17T13:18:23.968Z,5.72
2019-03-17T13:20:52.668Z,5.75
2019-03-17T13:23:21.403Z,5.42
2019-03-17T13:25:49.932Z,6.30
2019-03-17T13:28:22.300Z,6.40
2019-03-17T13:30:50.818Z,6.40
2019-03-17T13:33:19.348Z,6.40
2019-03-17T13:35:47.960Z,6.25
2019-03-17T13:38:16.853Z,5.95
2019-03-17T13:40:45.396Z,6.62
2019-03-17T13:43:13.912Z,6.15
2019-03-17T13:45:42.789Z,6.87
2019-03-17T13:48:11.292Z,6.95
2019-03-17T13:50:40.348Z,6.75
2019-03-17T13:53:09.213Z,5.92
2019-03-17T13:55:37.780Z,6.67
2019-03-17T13:58:06.384Z,7.08
2019-03-17T14:00:35.091Z,6.05
2019-03-17T14:03:05.024Z,7.37
2019-03-17T14:05:33.575Z,6.92
2019-03-17T14:08:02.095Z,8.50
2019-03-17T14:10:40.514Z,6.90
2019-03-17T14:12:59.224Z,6.70
2019-03-17T14:15:27.731Z,7.22
2019-03-17T14:17:56.772Z,5.92
2019-03-17T14:20:25.356Z,6.37
2019-03-17T14:22:53.859Z,5.78
2019-03-17T14:25:24.385Z,6.55
2019-03-17T14:27:53.226Z,7.25
2019-03-17T14:30:21.747Z,4.92
2019-03-17T14:32:50.262Z,5.03
2019-03-17T14:35:21.347Z,4.58
2019-03-17T14:37:47.403Z,5.05
2019-03-17T14:40:16.032Z,4.87
2019-03-17T14:42:45.214Z,4.95
2019-03-17T14:45:14.440Z,6.03
2019-03-17T14:47:43.631Z,4.97
2019-03-17T14:50:14.739Z,4.85
2019-03-17T14:52:43.359Z,5.67
2019-03-17T14:55:11.964Z,4.60
2019-03-17T14:57:40.685Z,4.40
2019-03-17T15:00:12.160Z,4.25
2019-03-17T15:02:40.691Z,5.17
2019-03-17T15:05:09.540Z,4.17
2019-03-17T15:07:38.263Z,3.83
2019-03-17T15:10:08.839Z,3.50
2019-03-17T15:12:37.584Z,4.40
2019-03-17T15:15:07.339Z,4.72
2019-03-17T15:17:35.863Z,4.45
2019-03-17T15:20:05.745Z,4.05
2019-03-17T15:22:34.815Z,4.03
2019-03-17T15:25:03.379Z,5.53
2019-03-17T15:27:31.863Z,5.55
2019-03-17T15:30:00.497Z,5.95
2019-03-17T15:32:28.911Z,5.67
2019-03-17T15:34:57.739Z,5.40
2019-03-17T15:37:26.544Z,4.47
2019-03-17T15:39:55.073Z,5.33
2019-03-17T15:42:23.539Z,4.80
2019-03-17T15:44:52.315Z,5.95
2019-03-17T15:47:20.852Z,5.95
2019-03-17T15:49:49.615Z,5.70
2019-03-17T15:52:18.347Z,5.25
2019-03-17T15:54:47.060Z,5.97
2019-03-17T15:57:15.735Z,5.75
2019-03-17T15:59:44.591Z,5.12
2019-03-17T16:02:13.435Z,5.30
2019-03-17T16:04:41.928Z,5.95
2019-03-17T16:07:10.455Z,4.58
2019-03-17T16:09:39.203Z,4.90
2019-03-17T16:12:07.718Z,5.40
2019-03-17T16:14:36.170Z,6.78
2019-03-17T16:17:04.934Z,5.90
2019-03-17T16:19:34.002Z,5.53
2019-03-17T16:22:02.506Z,4.60
2019-03-17T16:24:31.362Z,4.40
2019-03-17T16:27:00.558Z,4.50
2019-03-17T16:29:29.066Z,4.75
2019-03-17T16:31:57.522Z,6.55
2019-03-17T16:34:26.062Z,5.20
2019-03-17T16:36:54.886Z,5.97
2019-03-17T16:39:23.363Z,6.37
2019-03-17T16:41:52.301Z,4.80
2019-03-17T16:44:20.863Z,4.57
2019-03-17T16:46:49.702Z,4.72
2019-03-17T16:49:18.222Z,4.35
2019-03-17T16:51:48.480Z,4.83
2019-03-17T16:54:16.940Z,5.70
2019-03-17T16:56:46.844Z,4.97
2019-03-17T16:59:15.334Z,6.42
2019-03-17T17:01:43.869Z,6.47
2019-03-17T17:04:12.349Z,5.83
2019-03-17T17:06:41.169Z,5.33
2019-03-17T17:09:09.693Z,5.72
2019-03-17T17:11:38.253Z,6.83
2019-03-17T17:14:07.357Z,5.90
2019-03-17T17:16:36.330Z,4.62
2019-03-17T17:19:04.985Z,4.40
2019-03-17T17:21:33.461Z,4.70
2019-03-17T17:24:01.961Z,4.35
2019-03-17T17:26:37.401Z,4.25
2019-03-17T17:28:59.296Z,4.55
2019-03-17T17:31:27.824Z,4.60
2019-03-17T17:33:56.671Z,4.97
2019-03-17T17:36:25.337Z,5.15
2019-03-17T17:38:54.130Z,7.22
2019-03-17T17:41:22.956Z,8.95
2019-03-17T17:43:52.463Z,7.03
2019-03-17T17:46:21.114Z,8.70
2019-03-17T17:48:49.855Z,8.43
2019-03-17T17:51:18.345Z,8.00
2019-03-17T17:53:46.847Z,8.65
2019-03-17T17:56:15.423Z,10.93
2019-03-17T17:58:44.228Z,11.03
2019-03-17T18:01:12.758Z,9.38
2019-03-17T18:03:51.210Z,11.48
2019-03-17T18:06:09.855Z,8.90
2019-03-17T18:08:38.319Z,9.95
2019-03-17T18:11:06.971Z,10.70
2019-03-17T18:13:35.548Z,10.65
2019-03-17T18:16:05.076Z,13.65
2019-03-17T18:18:35.511Z,12.13
2019-03-17T18:21:05.022Z,3.10
2019-03-17T18:23:33.561Z,4.05
2019-03-17T18:26:02.101Z,2.37
2019-03-17T18:28:30.713Z,1.40
2019-03-17T18:30:59.225Z,2.08
2019-03-17T18:33:27.857Z,1.67
2019-03-17T18:35:56.349Z,2.30
2019-03-17T18:38:25.141Z,2.40
2019-03-17T18:40:53.725Z,2.00
2019-03-17T18:43:22.449Z,2.40
2019-03-17T18:45:50.926Z,2.17
2019-03-17T18:48:19.429Z,2.33
2019-03-17T18:50:48.456Z,1.98
2019-03-17T18:53:16.901Z,2.47
2019-03-17T18:55:45.328Z,2.58
2019-03-17T18:58:14.656Z,2.30
2019-03-17T19:00:43.169Z,2.50
2019-03-17T19:03:11.796Z,2.75
2019-03-17T19:05:40.261Z,4.58
2019-03-17T19:08:08.748Z,4.53
2019-03-17T19:10:40.753Z,5.30
2019-03-17T19:13:09.232Z,4.08
2019-03-17T19:15:38.288Z,3.70
2019-03-17T19:18:06.839Z,2.80
2019-03-17T19:20:35.359Z,3.30
2019-03-17T19:23:04.652Z,3.00
2019-03-17T19:25:33.243Z,2.80
2019-03-17T19:28:02.655Z,2.47
2019-03-17T19:30:31.249Z,2.45
2019-03-17T19:32:59.849Z,2.33
2019-03-17T19:35:28.417Z,2.60
2019-03-17T19:37:57.109Z,2.25
2019-03-17T19:40:25.663Z,2.35
2019-03-17T19:42:59.316Z,2.60
2019-03-17T19:45:22.887Z,3.83
2019-03-17T19:47:51.465Z,2.65
2019-03-17T19:50:21.619Z,2.80
2019-03-17T19:52:50.958Z,3.20
2019-03-17T19:55:19.554Z,2.55
2019-03-17T19:57:48.158Z,2.37
2019-03-17T20:00:16.842Z,2.30
2019-03-17T20:02:47.595Z,2.22
2019-03-17T20:05:14.101Z,2.65
2019-03-17T20:07:42.726Z,3.08
2019-03-17T20:10:13.203Z,3.52
2019-03-17T20:12:42.166Z,4.03
2019-03-17T20:15:10.855Z,3.87
2019-03-17T20:17:39.542Z,3.10
2019-03-17T20:20:09.053Z,3.10
2019-03-17T20:22:37.734Z,3.60
2019-03-17T20:25:06.522Z,3.92
2019-03-17T20:27:35.227Z,4.80
2019-03-17T20:30:04.153Z,5.33
2019-03-17T20:32:32.793Z,5.22
2019-03-17T20:35:01.442Z,5.90
2019-03-17T20:37:29.953Z,5.92
2019-03-17T20:39:58.465Z,4.87
2019-03-17T20:42:27.181Z,4.53
2019-03-17T20:44:55.712Z,5.05
2019-03-17T20:47:24.454Z,5.72
2019-03-17T20:49:53.176Z,5.50
2019-03-17T20:52:22.022Z,6.90
2019-03-17T20:54:50.897Z,6.72
2019-03-17T20:57:20.248Z,6.80
2019-03-17T20:59:48.836Z,6.40
2019-03-17T21:02:17.512Z,6.72
2019-03-17T21:04:46.055Z,6.67
2019-03-17T21:07:14.813Z,6.62
2019-03-17T21:09:43.385Z,6.70
2019-03-17T21:12:12.031Z,5.45
2019-03-17T21:14:40.539Z,5.10
2019-03-17T21:17:09.304Z,4.37
2019-03-17T21:19:37.882Z,3.95
2019-03-17T21:22:06.508Z,4.37
2019-03-17T21:24:35.465Z,6.45
2019-03-17T21:27:04.958Z,7.12
2019-03-17T21:29:33.544Z,8.03
2019-03-17T21:32:02.120Z,7.70
2019-03-17T21:34:30.657Z,6.00
2019-03-17T21:36:59.423Z,6.30
2019-03-17T21:39:28.061Z,4.72
2019-03-17T21:41:56.596Z,5.70
2019-03-17T21:44:25.304Z,6.60
2019-03-17T21:46:53.868Z,6.37
2019-03-17T21:49:22.428Z,3.92
2019-03-17T21:51:50.968Z,4.70
2019-03-17T21:54:19.508Z,4.42
2019-03-17T21:56:48.036Z,4.72
2019-03-17T21:59:16.568Z,4.58
2019-03-17T22:01:45.386Z,4.10
2019-03-17T22:04:14.156Z,4.22
2019-03-17T22:06:42.724Z,3.15
2019-03-17T22:09:11.220Z,3.75
2019-03-17T22:11:39.748Z,3.17
2019-03-17T22:14:12.323Z,4.22
2019-03-17T22:16:37.652Z,3.17
2019-03-17T22:19:06.140Z,3.58
2019-03-17T22:21:35.103Z,4.35
2019-03-17T22:24:03.884Z,4.90
2019-03-17T22:26:32.929Z,4.40
2019-03-17T22:29:01.474Z,3.77
2019-03-17T22:31:30.043Z,4.80
2019-03-17T22:33:59.229Z,3.98
2019-03-17T22:36:27.779Z,4.67
2019-03-17T22:38:56.589Z,5.42
2019-03-17T22:41:25.396Z,8.78
2019-03-17T22:43:54.191Z,8.50
2019-03-17T22:46:23.072Z,8.68
2019-03-17T22:48:51.607Z,6.40
2019-03-17T22:51:20.139Z,5.42
2019-03-17T22:53:48.640Z,5.03
2019-03-17T22:56:17.205Z,4.92
2019-03-17T22:58:45.720Z,4.50
2019-03-17T23:01:14.467Z,4.15
2019-03-17T23:03:43.307Z,4.25
2019-03-17T23:06:12.482Z,3.93
2019-03-17T23:08:41.127Z,3.10
2019-03-17T23:11:09.951Z,3.00
2019-03-17T23:13:38.571Z,3.27
2019-03-17T23:16:07.571Z,3.40
2019-03-17T23:18:36.511Z,3.08
2019-03-17T23:21:05.189Z,2.65
2019-03-17T23:23:33.843Z,3.10
2019-03-17T23:26:02.794Z,2.80
2019-03-17T23:28:31.511Z,2.58
2019-03-17T23:31:00.183Z,2.60
2019-03-17T23:33:28.865Z,2.50
2019-03-17T23:35:57.536Z,2.70
2019-03-17T23:38:26.299Z,2.80
2019-03-17T23:40:54.987Z,2.52
2019-03-17T23:43:23.759Z,2.93
2019-03-17T23:45:52.446Z,2.87
2019-03-17T23:48:21.683Z,2.70
2019-03-17T23:50:51.099Z,2.90
2019-03-17T23:53:19.859Z,2.83
2019-03-17T23:55:48.579Z,2.90
2019-03-17T23:58:17.320Z,2.65
